Warner, OK

4:09 AM CDT on May 29, 2017 (GMT -0500)
Davis | | Change Station
Active Advisory: Flood Advisory Active Notice: Flood Advisory

Elev 607 ft 35.66 °N, 95.36 °W | Updated 16 minutes ago

Mostly Cloudy
Mostly Cloudy
61 °F
Feels Like 61 °F
N
0
Wind Variable Wind from North

Today
High -- | Low -- °F
--% Chance of Precip.
Yesterday
High -- | Low -- °F
Precip. -- in
Pressure 30.01 in
Visibility 10.0 miles
Clouds Clear
Dew Point 60 °F
Humidity 97%
Rainfall 0.00 in
Snow Depth Not available.
6:08 AM 8:29 PM
Waxing Crescent, 18% visible
METAR KMKO 290853Z AUTO 00000KT 10SM CLR 16/16 A3002 RMK AO2 SLP160 T01610156 50002 $
Pressure 30.01 in
Visibility 10.0 miles
Clouds Clear
Dew Point 60 °F
Humidity 97%
Rainfall 0.00 in
Snow Depth Not available.
6:08 AM 8:29 PM
Waxing Crescent, 18% visible
METAR KMKO 290853Z AUTO 00000KT 10SM CLR 16/16 A3002 RMK AO2 SLP160 T01610156 50002 $

Get Your Daily Forecast Email!

Thanks for signing up!

Be on the lookout for a verification email in your inbox.

You'll start receiving severe weather alerts in your inbox..

×

10-Day Weather Forecast

Almanac

Astronomy

May. 29, 2017 Rise Set
Actual Time
Civil Twilight
Nautical Twilight
Astronomical Twilight
Moon
Length of Visible Light
Length of Day
Tomorrow will be .
, % of the Moon is Illuminated

Today's Extremes

State Highs State Lows

Community

WunderPhotos

Category 6

Welcome to Category 6. This is the collective home for Weather Underground's featured writeups by Dr. Jeff Masters (right), Bob Henson (left), Chris Burt, and other regular contributors.

Nearby

Air Quality

  Air Quality AQ Index Pollutant
Not available.

Snow Depth

Station Depth Elevation

Earthquake Activity

City Distance Mag. Time & Date
Minimum magnitude displayed is 2.5.

Coastal Water Temperatures

Place Temperature

Stations

Nearby Weather Stations

Station Location Temp. Windchill Dew Point Humidity Wind Precip. Elev Updated Type
                   

Watches & Warnings

Flood Advisory
Issued: 3:55 AM CDT May. 29, 2017 – National Weather Service

The flood advisory continues for
the Arkansas River near Muskogee
* until further notice, or until the advisory is cancelled.
* At 3:00 am Monday, the stage was 27.7 feet.
* Action stage is 27.0 feet.
* Flood stage is 28.0 feet.
* Forecast... the river will continue to fluctuate between 27 feet
and 28 feet through at least Friday.
* Impact... at 28.0 feet, minor lowland flooding occurs.


Lat... Lon 3583 9520 3552 9507 3547 9515 3559 9532 3583 9537